Flight Track Log - Related Links

Times and Time Zones

All times are in EDT time to prevent confusion due to time zone crossing. See the N137TK flight status page for this flight to view local times or setup timezone preferences in your user account.

Time Position Orientation Groundspeed Altitude Reporting Facility
EDT Latitude Longitude Course Direction KTS MPH feet Rate Location/Type
Mon 05:13:24 AM 26.6783 -81.8361 355° North 283 326 3,700  Level Miami Center
Mon 05:14:25 AM 26.7286 -81.8336 North 229 264 5,500 1,950 Climbing Miami Center
Mon 05:15:24 AM 26.7769 -81.8217 12° North 181 208 7,600 1,934 Climbing Miami Center
Mon 05:16:26 AM 26.8253 -81.8119 10° North 171 197 9,400 1,650 Climbing Miami Center
Mon 05:17:24 AM 26.8758 -81.8025 North 178 205 10,900 1,475 Climbing Miami Center
Mon 05:18:00 AM 27.0333 -81.8700 355° North  Level FlightAware
Mon 05:18:24 AM 26.9283 -81.7931 North 183 211 12,300  Level Miami Center
Mon 05:19:24 AM 26.9828 -81.7839 North 189 217 13,700 1,289 Climbing Miami Center
Mon 05:20:25 AM 27.0375 -81.7744 North 189 217 14,900 1,230 Climbing Miami Center
Mon 05:21:26 AM 27.0942 -81.7628 10° North 196 226 16,200 1,261 Climbing Miami Center
Mon 05:22:24 AM 27.1489 -81.7536 North 196 226 17,400 1,261 Climbing Miami Center
Mon 05:23:25 AM 27.2097 -81.7422 North 202 232 18,700 1,150 Climbing Miami Center
Mon 05:24:24 AM 27.2664 -81.7306 10° North 202 232 19,700 1,041 Climbing Miami Center
Mon 05:25:26 AM 27.3147 -81.7208 10° North 202 232 20,800 1,050 Climbing Miami Center
Mon 05:26:24 AM 27.3692 -81.7183 North 196 226 21,800 1,000 Climbing Miami Center
Mon 05:27:26 AM 27.4297 -81.7164 North 196 226 22,800 950 Climbing Miami Center
Mon 05:28:24 AM 27.4842 -81.7092 North 196 226 23,700 814 Climbing Miami Center
Mon 05:29:24 AM 27.5386 -81.7069 North 196 226 24,400 650 Climbing Miami Center
Mon 05:30:24 AM 27.5908 -81.7044 North 196 226 25,000 300 Climbing Miami Center
Mon 05:31:24 AM 27.6536 -81.7000 North 211 243 25,000  Level Miami Center
Mon 05:32:24 AM 27.7331 -81.6942 North 240 276 25,000  Level Miami Center
Mon 05:34:54 AM 27.9167 -81.6783 North 274 315 25,000  Level Jacksonville Center
Mon 05:35:54 AM 27.9961 -81.6728 North 274 315 25,000  Level Jacksonville Center
Mon 05:36:54 AM 28.0753 -81.6694 North 274 315 25,000  Level Jacksonville Center
Mon 05:37:54 AM 28.1544 -81.6614 North 274 315 25,000  Level Jacksonville Center
Mon 05:38:54 AM 28.2336 -81.6581 North 274 315 25,000  Level Jacksonville Center
Mon 05:39:54 AM 28.3108 -81.6547 North 274 315 25,000  Level Jacksonville Center
Mon 05:40:54 AM 28.3900 -81.6467 North 274 315 25,000  Level Jacksonville Center
Mon 05:41:54 AM 28.4778 -81.6433 North 274 315 25,000  Level Jacksonville Center
Mon 05:42:54 AM 28.5569 -81.6375 North 279 321 25,000  Level Jacksonville Center
Mon 05:43:54 AM 28.6361 -81.6317 North 279 321 25,000  Level Jacksonville Center
Mon 05:44:54 AM 28.7156 -81.6283 North 279 321 25,000  Level Jacksonville Center
Mon 05:45:54 AM 28.7969 -81.6203 North 279 321 25,000  Level Jacksonville Center
Mon 05:46:54 AM 28.8739 -81.6147 North 279 321 25,000  Level Jacksonville Center
Mon 05:47:54 AM 28.9553 -81.6089 North 279 321 25,000  Level Jacksonville Center
Mon 05:48:54 AM 29.0325 -81.6078 North 284 327 25,000  Level Jacksonville Center
Mon 05:49:54 AM 29.1117 -81.5997 North 284 327 25,000  Level Jacksonville Center
Mon 05:50:54 AM 29.1911 -81.5939 North 284 327 25,000  Level Jacksonville Center
Mon 05:51:54 AM 29.2683 -81.5881 North 279 321 25,000  Level Jacksonville Center
Mon 05:52:54 AM 29.3497 -81.5847 North 279 321 25,000  Level Jacksonville Center
Mon 05:53:54 AM 29.4289 -81.5789 North 279 321 25,000  Level Jacksonville Center
Mon 05:54:54 AM 29.5103 -81.5728 North 284 327 25,000  Level Jacksonville Center
Mon 05:55:54 AM 29.5894 -81.5669 North 289 333 25,000  Level Jacksonville Center
Mon 05:56:54 AM 29.6686 -81.5611 North 289 333 25,000  Level Jacksonville Center
Mon 05:57:54 AM 29.7500 -81.5528 North 289 333 25,000  Level Jacksonville Center
Mon 05:58:54 AM 29.8294 -81.5469 North 289 333 25,000  Level Jacksonville Center
Mon 05:59:54 AM 29.9128 -81.5411 North 289 333 25,000  Level Jacksonville Center
Mon 06:00:54 AM 29.9919 -81.5353 North 289 333 25,000  Level Jacksonville Center
Mon 06:01:54 AM 30.0714 -81.5292 North 289 333 25,000  Level Jacksonville Center
Mon 06:02:54 AM 30.1528 -81.5233 North 289 333 25,000  Level Jacksonville Center
Mon 06:03:54 AM 30.2319 -81.5175 North 289 333 25,000  Level Jacksonville Center
Mon 06:04:54 AM 30.3133 -81.5114 North 289 333 25,000  Level Jacksonville Center
Mon 06:05:54 AM 30.3883 -81.5031 North 289 333 25,000  Level Jacksonville Center
Mon 06:06:54 AM 30.4675 -81.4947 North 289 333 25,000  Level Jacksonville Center
Mon 06:07:54 AM 30.5489 -81.4839 North 289 333 25,000  Level Jacksonville Center
Mon 06:08:54 AM 30.6322 -81.4731 North 289 333 25,000  Level Jacksonville Center
Mon 06:09:54 AM 30.7136 -81.4644 North 289 333 25,000  Level Jacksonville Center
Mon 06:10:54 AM 30.7928 -81.4536 North 289 333 25,000  Level Jacksonville Center
Mon 06:11:54 AM 30.8742 -81.4453 North 289 333 25,000  Level Jacksonville Center
Mon 06:12:54 AM 30.9556 -81.4342 North 289 333 25,000  Level Jacksonville Center
Mon 06:13:54 AM 31.0347 -81.4258 North 289 333 25,000  Level Jacksonville Center
Mon 06:14:54 AM 31.1139 -81.4122 North 289 333 25,000  Level Jacksonville Center
Mon 06:15:54 AM 31.1953 -81.3942 11° North 294 338 25,000  Level Jacksonville Center
Mon 06:16:54 AM 31.2700 -81.3614 21° North 288 331 25,000  Level Jacksonville Center
Mon 06:17:54 AM 31.3447 -81.3261 22° Northeast 288 331 25,000  Level Jacksonville Center
Mon 06:18:54 AM 31.4319 -81.2906 19° North 287 330 25,000  Level Jacksonville Center
Mon 06:19:54 AM 31.4983 -81.2600 21° North 289 333 25,000  Level Jacksonville Center
Mon 06:20:54 AM 31.5794 -81.2244 20° North 284 327 25,000  Level Jacksonville Center
Mon 06:21:54 AM 31.6542 -81.1914 21° North 289 333 25,000  Level Jacksonville Center
Mon 06:22:54 AM 31.7225 -81.1658 18° North 289 333 25,000  Level Jacksonville Center
Mon 06:23:54 AM 31.8056 -81.1300 20° North 289 333 25,000  Level Jacksonville Center
Mon 06:24:54 AM 31.8719 -81.0994 21° North 282 325 25,000  Level Jacksonville Center
Mon 06:25:54 AM 31.9550 -81.0636 20° North 287 330 25,000  Level Jacksonville Center
Mon 06:26:54 AM 32.0317 -81.0275 22° Northeast 287 330 25,000  Level Jacksonville Center
Mon 06:27:54 AM 32.1022 -80.9992 19° North 287 330 25,000  Level Jacksonville Center
Mon 06:28:54 AM 32.1853 -80.9631 20° North 287 330 25,000  Level Jacksonville Center
Mon 06:29:54 AM 32.2536 -80.9347 19° North 287 330 25,000  Level Jacksonville Center
Mon 06:30:54 AM 32.3344 -80.8986 21° North 287 330 25,000  Level Jacksonville Center
Mon 06:31:54 AM 32.4114 -80.8675 19° North 282 325 25,000  Level Jacksonville Center
Mon 06:32:54 AM 32.4797 -80.8364 21° North 282 325 25,000  Level Jacksonville Center
Mon 06:33:54 AM 32.5564 -80.8000 22° Northeast 288 331 25,000  Level Jacksonville Center
Mon 06:34:54 AM 32.6353 -80.7686 19° North 288 331 25,000  Level Jacksonville Center
Mon 06:35:54 AM 32.7117 -80.7322 22° Northeast 288 331 25,000  Level Jacksonville Center
Mon 06:36:54 AM 32.7883 -80.6983 20° North 288 331 25,000  Level Jacksonville Center
Mon 06:37:54 AM 32.8650 -80.6642 21° North 288 331 25,000  Level Jacksonville Center
Mon 06:38:54 AM 32.9417 -80.6328 19° North 288 331 25,000  Level Jacksonville Center
Mon 06:39:54 AM 33.0183 -80.5986 20° North 288 331 25,000  Level Jacksonville Center
Mon 06:40:54 AM 33.0950 -80.5644 20° North 288 331 25,000  Level Jacksonville Center
Mon 06:41:54 AM 33.1694 -80.5253 24° Northeast 288 331 25,000  Level Jacksonville Center
Mon 06:42:54 AM 33.2497 -80.4708 30° Northeast 288 331 25,000  Level Jacksonville Center
Mon 06:43:54 AM 33.3217 -80.4192 31° Northeast 298 343 25,000  Level Jacksonville Center
Mon 06:44:54 AM 33.3917 -80.3675 32° Northeast 298 343 25,000  Level Jacksonville Center
Mon 06:45:54 AM 33.4658 -80.3156 30° Northeast 298 343 25,000  Level Jacksonville Center
Mon 06:46:54 AM 33.5356 -80.2636 32° Northeast 293 337 25,000  Level Jacksonville Center
Mon 06:47:54 AM 33.6056 -80.2119 32° Northeast 287 330 25,000  Level Jacksonville Center
Mon 06:48:54 AM 33.6775 -80.1597 31° Northeast 287 330 25,000  Level Jacksonville Center
Mon 06:49:54 AM 33.7472 -80.1050 33° Northeast 292 336 25,000  Level Jacksonville Center
Mon 06:50:54 AM 33.8169 -80.0478 34° Northeast 292 336 25,000 -250 Level Jacksonville Center
Mon 06:51:54 AM 33.8864 -79.9881 36° Northeast 298 343 24,500 -750 Descending Jacksonville Center
Mon 06:52:54 AM 33.9558 -79.9233 38° Northeast 303 349 23,500 -800 Descending Jacksonville Center
Mon 06:53:54 AM 34.0294 -79.8531 38° Northeast 316 364 22,900 -190 Descending Jacksonville Center
Mon 06:55:32 AM 34.1264 -79.7586 39° Northeast 301 346 23,000 38 Climbing Washington Center
Mon 06:56:30 AM 34.2011 -79.7072 30° Northeast 301 346 23,000 -353 Level Washington Center
Mon 06:57:31 AM 34.2964 -79.6717 17° North 307 353 22,300 -836 Descending Washington Center
Mon 06:58:32 AM 34.3842 -79.6636 North 313 360 21,300 -992 Descending Washington Center
Mon 06:59:32 AM 34.4761 -79.6556 North 323 372 20,300 -1,017 Descending Washington Center
Mon 07:00:30 AM 34.5703 -79.6500 North 328 377 19,300 -1,000 Descending Washington Center
Mon 07:01:32 AM 34.6622 -79.6447 North 333 383 18,300 -893 Descending Washington Center
Mon 07:02:31 AM 34.7442 -79.6311 North 333 383 17,500 -650 Descending Washington Center
Mon 07:03:32 AM 34.8425 -79.6208 North 333 383 17,000 -248 Descending Washington Center
Mon 07:04:32 AM 34.9200 -79.6169 North 314 361 17,000  Level Washington Center
Mon 07:05:32 AM 35.0100 -79.6089 North 301 346 17,000 -203 Level Washington Center
Mon 07:06:30 AM 35.0853 -79.6022 North 301 346 16,600 -763 Descending Washington Center
Mon 07:07:30 AM 35.1817 -79.5919 North 301 346 15,500 -1,041 Descending Washington Center
Mon 07:08:31 AM 35.2650 -79.5936 359° North 318 366 14,500 -1,082 Descending Washington Center
Mon 07:09:32 AM 35.3586 -79.5981 358° North 313 360 13,300 -1,180 Descending Washington Center
Mon 07:11:00 AM 35.4705 -79.6000 North  Level FlightAware
Mon 07:18:00 AM 35.9378 -79.8878 321° Northwest  Level FlightAware
Mon 07:19:00 AM 35.9987 -79.9436 332° Northwest  Level FlightAware
Mon 07:20:00 AM 36.0648 -79.9451 15° North  Level FlightAware
Mon 07:21:00 AM 36.1000 -79.9333 15° North  Level FlightAware
Mon 07:22:00 AM 36.1013 -79.9411 15° North  Level Estimated
Mon 07:23:00 AM 36.1000 -79.9333 15° North  Level FlightAware
Mon 07:24:00 AM 36.1013 -79.9411 15° North  Level Estimated
Mon 07:25:00 AM 36.1000 -79.9333 15° North  Level FlightAware

Login

Don't have an account? Register now (free) for customized features, flight alerts, and more!